Flight Track Log - Related Links

Times and Time Zones

All times are in EDT time to prevent confusion due to time zone crossing. See the EJA951 flight status page for this flight to view local times or setup timezone preferences in your user account.

Time Position Orientation Groundspeed Altitude Reporting Facility
EDT Latitude Longitude Course Direction KTS MPH feet Rate Location/Type
Thu 07:19:32 AM 27.3333 -82.5000 138° Southeast 228 262 4,100  Level Tampa TRACON
Thu 07:21:58 AM 27.3606 -82.6342 283° West 181 208 10,200 2,243 Climbing Miami Center
Thu 07:22:58 AM 27.4175 -82.7167 308° West 266 306 11,800 1,550 Climbing Miami Center
Thu 07:23:58 AM 27.4917 -82.7906 319° Northwest 304 350 13,300 1,500 Climbing Miami Center
Thu 07:24:58 AM 27.5961 -82.7914 360° North 327 376 14,800 1,450 Climbing Miami Center
Thu 07:25:58 AM 27.6983 -82.7894 North 347 399 16,200 1,177 Climbing Miami Center
Thu 07:28:27 AM 27.9706 -82.7914 360° North 388 447 18,900 1,206 Climbing Jacksonville Center
Thu 07:29:27 AM 28.0853 -82.7892 North 393 452 20,400 1,450 Climbing Jacksonville Center
Thu 07:30:27 AM 28.2019 -82.7889 360° North 405 466 21,800 1,250 Climbing Jacksonville Center
Thu 07:31:27 AM 28.3211 -82.7864 North 411 473 22,900 1,200 Climbing Jacksonville Center
Thu 07:32:27 AM 28.4400 -82.7864 360° North 421 484 24,200 1,300 Climbing Jacksonville Center
Thu 07:33:27 AM 28.5611 -82.7744 North 426 490 25,500 1,350 Climbing Jacksonville Center
Thu 07:34:27 AM 28.6861 -82.7625 North 434 499 26,900 1,300 Climbing Jacksonville Center
Thu 07:35:27 AM 28.8114 -82.7481 North 445 512 28,100 1,200 Climbing Jacksonville Center
Thu 07:36:27 AM 28.9386 -82.7431 North 445 512 29,300 1,350 Climbing Jacksonville Center
Thu 07:37:27 AM 29.0639 -82.7572 354° North 445 512 30,800 1,600 Climbing Jacksonville Center
Thu 07:38:27 AM 29.1914 -82.7664 356° North 445 512 32,500 1,850 Climbing Jacksonville Center
Thu 07:39:27 AM 29.3167 -82.7758 356° North 445 512 34,500 1,900 Climbing Jacksonville Center
Thu 07:40:27 AM 29.4419 -82.7806 358° North 445 512 36,300 1,900 Climbing Jacksonville Center
Thu 07:41:27 AM 29.5669 -82.7756 North 445 512 38,300 1,800 Climbing Jacksonville Center
Thu 07:42:27 AM 29.6817 -82.6967 31° Northeast 439 505 39,900 1,350 Climbing Jacksonville Center
Thu 07:43:27 AM 29.7861 -82.5983 39° Northeast 464 534 41,000 550 Climbing Jacksonville Center
Thu 07:44:27 AM 29.9028 -82.5069 34° Northeast 484 557 41,000  Level Jacksonville Center
Thu 07:45:27 AM 30.0192 -82.4103 36° Northeast 496 571 41,000  Level Jacksonville Center
Thu 07:46:27 AM 30.1358 -82.3136 36° Northeast 508 585 41,000  Level Jacksonville Center
Thu 07:47:27 AM 30.2564 -82.2119 36° Northeast 520 598 41,000  Level Jacksonville Center
Thu 07:48:27 AM 30.3769 -82.1125 35° Northeast 525 604 41,000  Level Jacksonville Center
Thu 07:49:27 AM 30.4931 -82.0175 35° Northeast 525 604 41,000  Level Jacksonville Center
Thu 07:50:27 AM 30.6178 -81.9197 34° Northeast 525 604 41,000  Level Jacksonville Center
Thu 07:51:27 AM 30.7358 -81.8194 36° Northeast 525 604 41,000  Level Jacksonville Center
Thu 07:52:27 AM 30.8542 -81.7214 35° Northeast 520 598 41,000  Level Jacksonville Center
Thu 07:53:27 AM 30.9742 -81.6231 35° Northeast 520 598 41,000  Level Jacksonville Center
Thu 07:54:27 AM 31.0922 -81.5219 36° Northeast 520 598 41,000  Level Jacksonville Center
Thu 07:55:27 AM 31.2122 -81.4181 37° Northeast 520 598 41,000  Level Jacksonville Center
Thu 07:56:27 AM 31.3281 -81.3214 35° Northeast 520 598 41,000  Level Jacksonville Center
Thu 07:57:27 AM 31.4436 -81.2172 38° Northeast 520 598 41,000  Level Jacksonville Center
Thu 07:58:27 AM 31.5778 -81.1050 35° Northeast 525 604 41,000  Level Jacksonville Center
Thu 07:59:27 AM 31.6828 -81.0128 37° Northeast 525 604 41,000  Level Jacksonville Center
Thu 08:00:27 AM 31.8147 -80.9025 35° Northeast 525 604 41,000  Level Jacksonville Center
Thu 08:01:27 AM 31.9322 -80.7994 37° Northeast 530 610 41,000  Level Jacksonville Center
Thu 08:02:27 AM 32.0392 -80.7064 36° Northeast 524 603 41,000  Level Jacksonville Center
Thu 08:03:27 AM 32.1542 -80.6056 37° Northeast 524 603 41,000  Level Jacksonville Center
Thu 08:04:27 AM 32.2756 -80.5019 36° Northeast 524 603 41,000  Level Jacksonville Center
Thu 08:05:27 AM 32.3925 -80.3978 37° Northeast 524 603 41,000  Level Jacksonville Center
Thu 08:06:27 AM 32.5094 -80.2961 36° Northeast 524 603 41,000  Level Jacksonville Center
Thu 08:07:27 AM 32.6242 -80.1917 37° Northeast 524 603 41,000  Level Jacksonville Center
Thu 08:08:27 AM 32.7408 -80.0894 36° Northeast 524 603 41,000  Level Jacksonville Center
Thu 08:09:27 AM 32.8575 -79.9869 36° Northeast 524 603 41,000  Level Jacksonville Center
Thu 08:10:27 AM 32.9761 -79.8792 37° Northeast 524 603 41,000  Level Jacksonville Center
Thu 08:11:27 AM 33.0925 -79.7761 37° Northeast 524 603 41,000  Level Jacksonville Center
Thu 08:12:27 AM 33.2089 -79.6703 37° Northeast 524 603 41,000  Level Jacksonville Center
Thu 08:13:27 AM 33.3211 -79.5667 38° Northeast 524 603 41,000  Level Jacksonville Center
Thu 08:14:27 AM 33.4350 -79.4578 39° Northeast 524 603 41,000  Level Jacksonville Center
Thu 08:15:27 AM 33.5467 -79.3514 38° Northeast 524 603 41,000  Level Jacksonville Center
Thu 08:16:27 AM 33.6606 -79.2444 38° Northeast 524 603 41,000  Level Jacksonville Center
Thu 08:18:33 AM 33.8911 -79.0214 39° Northeast 510 587 41,000  Level Washington Center
Thu 08:19:33 AM 34.0028 -78.9133 39° Northeast 510 587 41,000  Level Washington Center
Thu 08:20:34 AM 34.1161 -78.8050 38° Northeast 510 587 41,000  Level Washington Center
Thu 08:21:32 AM 34.2294 -78.6989 38° Northeast 510 587 41,000  Level Washington Center
Thu 08:22:33 AM 34.3431 -78.5875 39° Northeast 510 587 41,000  Level Washington Center
Thu 08:23:33 AM 34.4561 -78.4783 39° Northeast 510 587 41,000  Level Washington Center
Thu 08:24:34 AM 34.5694 -78.3639 40° Northeast 510 587 41,000  Level Washington Center
Thu 08:25:31 AM 34.6847 -78.2542 38° Northeast 510 587 41,000  Level Washington Center
Thu 08:26:32 AM 34.7956 -78.1414 40° Northeast 515 593 41,000  Level Washington Center
Thu 08:27:33 AM 34.9108 -78.0261 39° Northeast 520 598 41,000  Level Washington Center
Thu 08:28:34 AM 35.0233 -77.9178 38° Northeast 520 598 41,000  Level Washington Center
Thu 08:29:34 AM 35.1342 -77.7992 41° Northeast 520 598 41,000  Level Washington Center
Thu 08:30:32 AM 35.2467 -77.6878 39° Northeast 520 598 41,000  Level Washington Center
Thu 08:31:32 AM 35.3550 -77.5758 40° Northeast 514 592 41,000  Level Washington Center
Thu 08:32:33 AM 35.4694 -77.4767 35° Northeast 514 592 41,000  Level Washington Center
Thu 08:33:33 AM 35.5836 -77.3697 37° Northeast 504 580 41,000  Level Washington Center
Thu 08:34:34 AM 35.6978 -77.2725 35° Northeast 504 580 41,000  Level Washington Center
Thu 08:35:32 AM 35.8139 -77.1725 35° Northeast 510 587 41,000  Level Washington Center
Thu 08:36:32 AM 35.9406 -77.0544 37° Northeast 516 594 41,000  Level Washington Center
Thu 08:37:33 AM 36.0567 -76.9511 36° Northeast 516 594 41,000  Level Washington Center
Thu 08:38:33 AM 36.1744 -76.8528 34° Northeast 510 587 41,000  Level Washington Center
Thu 08:39:34 AM 36.2922 -76.7567 33° Northeast 504 580 41,000  Level Washington Center
Thu 08:40:32 AM 36.4122 -76.6606 33° Northeast 504 580 41,000  Level Washington Center
Thu 08:41:33 AM 36.5317 -76.5664 32° Northeast 509 586 41,000  Level Washington Center
Thu 08:42:34 AM 36.6514 -76.4644 34° Northeast 514 592 41,000  Level Washington Center
Thu 08:43:35 AM 36.7689 -76.3644 34° Northeast 514 592 41,000  Level Washington Center
Thu 08:44:32 AM 36.8906 -76.2672 33° Northeast 514 592 41,000  Level Washington Center
Thu 08:45:33 AM 37.0081 -76.1692 34° Northeast 514 592 41,000  Level Washington Center
Thu 08:46:34 AM 37.1189 -76.0842 31° Northeast 514 592 41,000  Level Washington Center
Thu 08:47:34 AM 37.2361 -75.9858 34° Northeast 508 585 41,000  Level Washington Center
Thu 08:48:32 AM 37.3531 -75.8869 34° Northeast 508 585 41,000  Level Washington Center
Thu 08:49:32 AM 37.4722 -75.7856 34° Northeast 508 585 41,000  Level Washington Center
Thu 08:50:33 AM 37.5869 -75.6889 34° Northeast 508 585 41,000  Level Washington Center
Thu 08:51:34 AM 37.7081 -75.5892 33° Northeast 508 585 41,000  Level Washington Center
Thu 08:52:34 AM 37.8247 -75.4867 35° Northeast 508 585 41,000  Level Washington Center
Thu 08:53:32 AM 37.9414 -75.3864 34° Northeast 508 585 41,000  Level Washington Center
Thu 08:54:32 AM 38.0581 -75.2858 34° Northeast 508 585 41,000  Level Washington Center
Thu 08:55:33 AM 38.1786 -75.1850 33° Northeast 508 585 41,000  Level Washington Center
Thu 08:56:34 AM 38.2972 -75.0786 35° Northeast 513 590 41,000  Level Washington Center
Thu 08:57:34 AM 38.4300 -74.9636 34° Northeast 518 596 41,000  Level Washington Center
Thu 08:58:32 AM 38.5483 -74.8564 35° Northeast 518 596 41,000  Level Washington Center
Thu 08:59:33 AM 38.6664 -74.7567 33° Northeast 512 589 41,000  Level Washington Center
Thu 09:00:34 AM 38.7864 -74.6489 35° Northeast 512 589 41,000  Level Washington Center
Thu 09:01:32 AM 38.9044 -74.5433 35° Northeast 512 589 41,000  Level Washington Center
Thu 09:02:33 AM 39.0222 -74.4375 35° Northeast 512 589 41,000  Level Washington Center
Thu 09:03:33 AM 39.1400 -74.3311 35° Northeast 512 589 41,000  Level Washington Center
Thu 09:04:33 AM 39.2575 -74.2244 35° Northeast 512 589 41,000 -369 Level Washington Center
Thu 09:06:32 AM 39.4950 -74.0153 34° Northeast 524 603 39,900 -737 Descending Boston Center
Thu 09:07:32 AM 39.6111 -73.9075 36° Northeast 524 603 38,800 -1,000 Descending Boston Center
Thu 09:08:32 AM 39.7039 -73.8206 36° Northeast 524 603 37,900 -900 Descending Boston Center
Thu 09:09:32 AM 39.8447 -73.6967 34° Northeast 519 597 37,000 -409 Descending Boston Center
Thu 09:10:44 AM 39.9731 -73.5825 34° Northeast 519 597 37,000 -364 Level Boston Center
Thu 09:11:44 AM 40.0908 -73.4733 35° Northeast 519 597 36,200 -1,450 Descending Boston Center
Thu 09:12:44 AM 40.2147 -73.3503 37° Northeast 519 597 34,100 -2,050 Descending Boston Center
Thu 09:13:44 AM 40.3281 -73.2458 35° Northeast 532 612 32,100 -2,000 Descending Boston Center
Thu 09:14:44 AM 40.4436 -73.1272 38° Northeast 532 612 30,100 -2,000 Descending Boston Center
Thu 09:15:44 AM 40.5631 -73.0083 37° Northeast 532 612 28,100 -2,000 Descending Boston Center
Thu 09:16:44 AM 40.6803 -72.8917 37° Northeast 532 612 26,100 -2,000 Descending Boston Center
Thu 09:17:44 AM 40.8097 -72.7692 36° Northeast 532 612 24,100 -2,000 Descending Boston Center
Thu 09:18:44 AM 40.9206 -72.6572 37° Northeast 517 595 22,100 -1,800 Descending Boston Center
Thu 09:19:44 AM 41.0269 -72.5447 39° Northeast 500 575 20,500 -1,600 Descending Boston Center
Thu 09:20:44 AM 41.1333 -72.4372 37° Northeast 481 554 18,900 -2,000 Descending Boston Center
Thu 09:21:44 AM 41.2394 -72.3517 31° Northeast 475 547 16,500 -1,900 Descending Boston Center
Thu 09:22:44 AM 41.3542 -72.3128 14° North 435 501 15,100 -1,450 Descending Boston Center
Thu 09:23:44 AM 41.4728 -72.2683 16° North 428 493 13,600 -1,333 Descending Boston Center
Thu 09:24:05 AM 41.5083 -72.2572 13° North 427 491 13,300 -1,200 Descending Boston Center
Thu 09:24:44 AM 41.5833 -72.2292 16° North 421 484 12,400 -1,271 Descending Boston Center
Thu 09:25:30 AM 41.6603 -72.1983 17° North 410 472 11,500 -736 Descending Boston Center
Thu 09:26:30 AM 41.7728 -72.1617 14° North 410 472 11,100 -524 Descending Boston Center
Thu 09:27:13 AM 41.8497 -72.1308 17° North 374 430 10,600 -1,041 Descending Boston Center
Thu 09:28:08 AM 41.9267 -72.0997 17° North 318 366 9,400 -1,451 Descending Boston Center
Thu 09:28:44 AM 41.9725 -72.0828 15° North 314 361 8,400 -1,563 Descending Boston Center
Thu 09:29:44 AM 42.0475 -72.0514 17° North 278 320 6,900 -1,319 Descending Boston Center
Thu 09:30:15 AM 42.0850 -72.0400 13° North 259 298 6,400 -1,000 Descending Boston Center
Thu 09:30:44 AM 42.1142 -72.0203 27° Northeast 260 299 5,900 -1,180 Descending Boston Center
Thu 09:31:16 AM 42.1472 -71.9836 39° Northeast 288 331 5,200 -900 Descending Boston Center
Thu 09:31:44 AM 42.1764 -71.9497 41° Northeast 274 315 5,000 -109 Descending Boston Center
Thu 09:32:11 AM 42.2011 -71.9217 40° Northeast 277 319 5,100  Climbing Boston Center
Thu 09:32:44 AM 42.2364 -71.8819 40° Northeast 279 321 5,000  Descending Boston Center
Thu 09:33:17 AM 42.2717 -71.8481 35° Northeast 281 323 5,100  Climbing Boston Center
Thu 09:33:44 AM 42.2903 -71.8197 48° Northeast 279 321 5,000 -61 Descending Boston Center
Thu 09:34:56 AM 42.3544 -71.7517 38° Northeast 279 321 5,000 -182 Level Boston Center
Thu 09:35:56 AM 42.4103 -71.6500 53° Northeast 276 318 4,600 -519 Descending Boston Center
Thu 09:36:17 AM 42.4167 -71.6167 75° East 290 334 4,300 -439 Descending KA90
Thu 09:37:18 AM 42.4500 -71.5333 62° Northeast 256 295 4,000 -153 Descending KA90
Thu 09:38:15 AM 42.5000 -71.4667 44° Northeast 245 282 4,000  Level KA90
Thu 09:39:12 AM 42.5333 -71.3833 61° Northeast 248 285 4,000 -488 Level KA90
Thu 09:40:18 AM 42.5333 -71.2833 90° East 245 282 3,000 -810 Descending KA90
Thu 09:41:18 AM 42.5500 -71.2167 71° East 206 237 2,300 -504 Descending KA90
Thu 09:42:17 AM 42.5333 -71.1667 114° Southeast 197 227 2,000 -203 Descending KA90
Thu 09:43:16 AM 42.4833 -71.1667 180° South 186 214 1,900 -421 Descending KA90
Thu 09:44:11 AM 42.4667 -71.2000 236° Southwest 130 150 1,200 -700 Descending KA90
Thu 09:45:16 AM 42.4667 -71.2500 270° West 121 139 500 -646 Descending KA90

Login

Don't have an account? Register now (free) for customized features, flight alerts, and more!